Terminal Aerodrome Forecast
Issued by NWS

Home | Current Version | Previous Version | Text Only | Print | Product List | Glossary On
Versions: 1 2 3 4 5 6 7 8 9 10 11 12 13
000
FTUS42 TJSJ 270500
TAFIST
TAF
TIST 270520Z 2706/2806 11011KT P6SM VCSH FEW021 SCT040
      TEMPO 2706/2708 BKN029
     FM271100 13012KT P6SM SCT025
     FM271600 12013KT P6SM VCSH SCT025 SCT040=

USA.gov is the U.S. government's official web portal to all federal, state and local government web resources and services.